Time;durP1;ratioP1;P1;durP2;ratioP2;P2;SDS_P1;SDS_P2;PMS_P1;PMS_P2;Temp;Humidity;BMP_temperature;BMP_pressure;BME280_temperature;BME280_humidity;BME280_pressure;Samples;Min_cycle;Max_cycle;Signal;HPM_P1;HPM_P2
2023/01/26 00:02:45;;;;;;;32.35;16.35;;;0.60;99.90;;;;;;5073004;28;20052;-54
2023/01/26 00:05:31;;;;;;;32.35;16.95;;;0.70;99.90;;;;;;5078606;28;20036;-56
2023/01/26 00:08:17;;;;;;;33.67;16.67;;;0.80;99.90;;;;;;5071064;28;20029;-48
2023/01/26 00:11:05;;;;;;;32.40;17.38;;;0.80;99.90;;;;;;5071270;28;20081;-53
2023/01/26 00:13:52;;;;;;;32.05;17.10;;;0.80;99.90;;;;;;5067169;28;20033;-51
2023/01/26 00:16:38;;;;;;;30.30;16.60;;;0.70;99.90;;;;;;5068600;28;20064;-49
2023/01/26 00:19:24;;;;;;;30.98;15.05;;;0.80;99.90;;;;;;5070589;28;20028;-47
2023/01/26 00:22:10;;;;;;;25.02;14.27;;;0.60;99.90;;;;;;5068805;28;20455;-53
2023/01/26 00:24:56;;;;;;;27.40;15.63;;;0.50;99.90;;;;;;5054860;28;20501;-50
2023/01/26 00:27:42;;;;;;;23.77;13.15;;;0.60;99.90;;;;;;5068421;28;20032;-53
2023/01/26 00:30:28;;;;;;;25.35;13.65;;;0.50;99.90;;;;;;5069461;28;20388;-55
2023/01/26 00:33:14;;;;;;;25.80;13.95;;;0.30;99.90;;;;;;5069131;28;20539;-52
2023/01/26 00:36:00;;;;;;;26.17;13.57;;;0.10;99.90;;;;;;5068714;28;20040;-57
2023/01/26 00:38:46;;;;;;;27.58;14.57;;;0.20;99.90;;;;;;5063293;28;20040;-53
2023/01/26 00:44:37;;;;;;;27.55;14.32;;;0.10;99.90;;;;;;5073799;28;20396;-53
2023/01/26 00:47:23;;;;;;;24.50;12.90;;;0.20;99.90;;;;;;5072462;28;20025;-56
2023/01/26 00:50:09;;;;;;;20.95;11.57;;;0.20;99.90;;;;;;5065592;28;20496;-57
2023/01/26 00:52:55;;;;;;;24.92;13.45;;;0.30;99.90;;;;;;5072912;28;20536;-54
2023/01/26 00:55:42;;;;;;;23.70;12.90;;;0.20;99.90;;;;;;5053977;28;20037;-57
2023/01/26 00:58:28;;;;;;;23.58;12.95;;;0.20;99.90;;;;;;5070538;28;20036;-56
2023/01/26 01:01:14;;;;;;;24.77;13.15;;;-0.10;99.90;;;;;;5072543;28;20059;-56
2023/01/26 01:03:59;;;;;;;24.25;14.43;;;0.10;99.90;;;;;;5071459;28;20029;-51
2023/01/26 01:06:46;;;;;;;28.88;13.60;;;0.20;99.90;;;;;;5071292;28;20112;-54
2023/01/26 01:09:31;;;;;;;24.85;13.82;;;0.10;99.90;;;;;;5070409;28;20055;-53
2023/01/26 01:12:17;;;;;;;22.60;14.38;;;0.00;99.90;;;;;;5053095;28;20562;-54
2023/01/26 01:15:04;;;;;;;24.88;13.43;;;-0.10;99.90;;;;;;5054260;28;20035;-53
2023/01/26 01:17:50;;;;;;;26.60;14.27;;;0.00;99.90;;;;;;5072139;28;20112;-55
2023/01/26 01:20:39;;;;;;;24.90;14.18;;;0.10;99.90;;;;;;5073425;28;20032;-53
2023/01/26 01:23:28;;;;;;;26.38;13.93;;;0.00;99.90;;;;;;5072186;28;20545;-52
2023/01/26 01:26:15;;;;;;;28.80;14.40;;;0.00;99.90;;;;;;5072172;28;20028;-53
2023/01/26 01:29:01;;;;;;;22.60;13.32;;;-0.20;99.90;;;;;;5071426;28;20040;-53
2023/01/26 01:31:47;;;;;;;24.08;13.38;;;-0.20;99.90;;;;;;5071884;28;20028;-53
2023/01/26 01:34:32;;;;;;;25.85;14.50;;;0.00;99.90;;;;;;5070725;28;20445;-51
2023/01/26 01:37:18;;;;;;;23.50;12.93;;;-0.20;99.90;;;;;;5071324;28;20170;-51
2023/01/26 01:40:05;;;;;;;22.60;14.02;;;0.00;99.90;;;;;;5072887;28;20025;-47
2023/01/26 01:42:51;;;;;;;25.58;14.52;;;0.10;99.90;;;;;;5072940;28;20107;-48
2023/01/26 01:45:43;;;;;;;29.35;15.15;;;0.10;99.90;;;;;;5071576;28;20058;-50
2023/01/26 01:48:51;;;;;;;23.95;13.18;;;0.20;99.90;;;;;;5070546;28;20071;-51
2023/01/26 01:51:53;;;;;;;24.58;13.65;;;0.00;99.90;;;;;;5071704;28;20036;-49
2023/01/26 01:54:44;;;;;;;20.80;11.68;;;0.00;99.90;;;;;;5070198;28;20528;-52
2023/01/26 01:57:45;;;;;;;20.42;10.88;;;0.10;99.90;;;;;;5072159;28;20044;-50
2023/01/26 02:00:31;;;;;;;21.42;12.20;;;-0.10;99.90;;;;;;5071681;28;20420;-51
2023/01/26 02:03:19;;;;;;;22.83;12.77;;;0.10;99.90;;;;;;5072568;28;20540;-50
2023/01/26 02:06:30;;;;;;;19.60;11.82;;;0.20;99.90;;;;;;5062722;28;20044;-52
2023/01/26 02:12:29;;;;;;;19.80;11.40;;;0.30;99.90;;;;;;5070603;28;20024;-52
2023/01/26 02:15:15;;;;;;;20.05;11.85;;;0.30;99.90;;;;;;5070372;28;20028;-52
2023/01/26 02:18:03;;;;;;;19.35;11.15;;;0.30;99.90;;;;;;5069554;28;20020;-52
2023/01/26 02:21:08;;;;;;;21.20;11.30;;;0.50;99.90;;;;;;5072033;28;20041;-48
2023/01/26 02:24:36;;;;;;;19.67;11.27;;;0.40;99.90;;;;;;5070638;28;20104;-54
2023/01/26 02:27:21;;;;;;;21.05;10.60;;;0.40;99.90;;;;;;5070380;28;20048;-50
2023/01/26 02:30:10;;;;;;;20.70;12.05;;;0.40;99.90;;;;;;5069789;28;20031;-47
2023/01/26 02:32:56;;;;;;;18.83;10.93;;;0.40;99.90;;;;;;5069560;28;20119;-49
2023/01/26 02:35:42;;;;;;;18.15;10.88;;;0.40;99.90;;;;;;5070740;28;20043;-48
2023/01/26 02:38:37;;;;;;;19.80;12.18;;;0.20;99.90;;;;;;5070341;28;20074;-48
2023/01/26 02:44:29;;;;;;;16.98;10.50;;;0.40;99.90;;;;;;5071925;28;20078;-53
2023/01/26 02:47:17;;;;;;;18.85;10.75;;;0.40;99.90;;;;;;5070035;28;20115;-54
2023/01/26 02:50:03;;;;;;;19.23;10.73;;;0.40;99.90;;;;;;5071448;28;20036;-52
2023/01/26 02:52:49;;;;;;;18.50;11.05;;;0.30;99.90;;;;;;5067190;28;20025;-54
2023/01/26 02:55:35;;;;;;;15.32;9.45;;;0.30;99.90;;;;;;5069146;28;20060;-49
2023/01/26 02:58:21;;;;;;;16.45;9.48;;;0.10;99.90;;;;;;5070985;28;20090;-50
2023/01/26 03:01:07;;;;;;;21.15;12.07;;;0.30;99.90;;;;;;5071097;28;20584;-48
2023/01/26 03:03:53;;;;;;;20.08;12.23;;;0.30;99.90;;;;;;5055934;28;20051;-50
2023/01/26 03:06:39;;;;;;;18.27;11.07;;;0.30;99.90;;;;;;5069272;28;20047;-45
2023/01/26 03:09:25;;;;;;;21.33;12.40;;;0.20;99.90;;;;;;5070252;28;20051;-49
2023/01/26 03:12:12;;;;;;;18.85;10.93;;;0.10;99.90;;;;;;5071338;28;20037;-48
2023/01/26 03:27:26;;;;;;;19.83;11.00;;;0.40;99.90;;;;;;5072476;28;20025;-56
2023/01/26 03:30:17;;;;;;;19.33;10.95;;;0.30;99.90;;;;;;5069949;28;20563;-47
2023/01/26 03:33:03;;;;;;;18.40;11.23;;;0.20;99.90;;;;;;5068805;28;20024;-49
2023/01/26 03:35:53;;;;;;;18.17;10.55;;;0.20;99.90;;;;;;5070309;28;20040;-50
2023/01/26 03:38:38;;;;;;;20.88;11.48;;;0.20;99.90;;;;;;5070724;28;20124;-47
2023/01/26 03:56:48;;;;;;;18.50;10.25;;;0.50;99.90;;;;;;5069253;28;20067;-47
2023/01/26 03:59:37;;;;;;;18.95;10.98;;;0.40;99.90;;;;;;5069804;28;20033;-47
2023/01/26 04:08:32;;;;;;;17.95;10.48;;;0.60;99.90;;;;;;5070081;28;20037;-52
2023/01/26 04:11:18;;;;;;;21.00;11.68;;;0.50;99.90;;;;;;5069928;28;20040;-54
2023/01/26 04:23:20;;;;;;;21.08;11.18;;;0.20;99.90;;;;;;5053962;28;20029;-56
2023/01/26 04:26:06;;;;;;;19.52;11.82;;;0.30;99.90;;;;;;5072690;28;20020;-50
2023/01/26 04:28:52;;;;;;;24.13;13.43;;;0.40;99.90;;;;;;5073659;28;20077;-50
2023/01/26 04:31:40;;;;;;;26.20;13.40;;;0.30;99.90;;;;;;5074592;28;20052;-53
2023/01/26 04:34:26;;;;;;;23.15;12.15;;;0.20;99.90;;;;;;5074504;28;20024;-51
2023/01/26 04:37:12;;;;;;;25.27;13.45;;;0.20;99.90;;;;;;5073951;28;20035;-48
2023/01/26 04:39:58;;;;;;;21.88;12.35;;;0.20;99.90;;;;;;5072885;28;20024;-49
2023/01/26 04:42:43;;;;;;;23.70;12.38;;;0.10;99.90;;;;;;5071972;28;20403;-48
2023/01/26 04:45:29;;;;;;;26.13;13.93;;;0.10;99.90;;;;;;5072265;28;20059;-54
2023/01/26 04:48:15;;;;;;;22.50;13.85;;;0.00;99.90;;;;;;5038656;28;20029;-49
2023/01/26 04:51:04;;;;;;;20.25;11.95;;;0.10;99.90;;;;;;5062188;28;20029;-50
2023/01/26 04:53:50;;;;;;;20.67;11.63;;;0.20;99.90;;;;;;5072190;28;20032;-55
2023/01/26 04:56:36;;;;;;;19.15;10.80;;;-0.20;99.90;;;;;;5071430;28;20051;-50
2023/01/26 04:59:22;;;;;;;23.33;11.52;;;-0.10;99.90;;;;;;5072772;28;20080;-51
2023/01/26 05:02:08;;;;;;;17.15;10.00;;;-0.10;99.90;;;;;;5073073;28;20615;-49
2023/01/26 05:04:54;;;;;;;18.00;11.07;;;0.00;99.90;;;;;;5072675;28;21485;-55
2023/01/26 05:07:40;;;;;;;17.45;9.93;;;0.00;99.90;;;;;;5076342;28;20024;-53
2023/01/26 05:10:26;;;;;;;16.67;10.48;;;0.10;99.90;;;;;;5084728;28;20053;-54
2023/01/26 05:13:13;;;;;;;18.83;10.40;;;0.20;99.90;;;;;;5080985;28;20528;-56
2023/01/26 05:15:59;;;;;;;19.10;12.25;;;0.20;99.90;;;;;;5058619;28;20111;-51
2023/01/26 05:18:44;;;;;;;18.15;11.27;;;0.40;99.90;;;;;;5062938;28;20028;-50
2023/01/26 05:21:30;;;;;;;15.95;9.68;;;0.40;99.90;;;;;;5072477;28;20563;-53
2023/01/26 05:24:16;;;;;;;17.13;10.13;;;0.40;99.90;;;;;;5064614;28;20029;-54
2023/01/26 05:27:20;;;;;;;17.10;9.48;;;0.20;99.90;;;;;;5073097;28;20037;-51
2023/01/26 05:30:07;;;;;;;17.05;9.20;;;0.20;99.90;;;;;;5072843;28;20481;-53
2023/01/26 05:32:53;;;;;;;15.88;10.02;;;0.20;99.90;;;;;;5071186;28;20042;-50
2023/01/26 05:35:39;;;;;;;15.57;8.70;;;-0.10;99.90;;;;;;5070432;28;20029;-48
2023/01/26 05:38:25;;;;;;;15.55;8.88;;;0.00;99.90;;;;;;5072502;28;20028;-48
2023/01/26 05:41:11;;;;;;;12.77;8.13;;;0.10;99.90;;;;;;5072433;28;20024;-47
2023/01/26 05:43:57;;;;;;;13.45;8.57;;;-0.10;99.90;;;;;;5071910;28;20115;-48
2023/01/26 05:46:43;;;;;;;12.52;8.70;;;-0.10;99.90;;;;;;5052570;28;20037;-49
2023/01/26 05:49:28;;;;;;;15.30;8.38;;;-0.10;99.90;;;;;;5054711;28;20501;-57
2023/01/26 05:52:18;;;;;;;13.93;8.25;;;0.00;99.90;;;;;;5072780;28;20031;-55
2023/01/26 05:55:05;;;;;;;12.63;8.23;;;0.10;99.90;;;;;;5072967;28;20025;-57
2023/01/26 05:57:51;;;;;;;16.27;8.57;;;0.00;99.90;;;;;;5053326;28;20190;-55
2023/01/26 06:00:37;;;;;;;14.30;8.57;;;-0.10;99.90;;;;;;5062939;28;20039;-52
2023/01/26 06:03:23;;;;;;;15.38;8.93;;;-0.20;99.90;;;;;;5072157;28;20108;-56
2023/01/26 06:06:09;;;;;;;12.73;8.43;;;-0.10;99.90;;;;;;5071602;28;20464;-51
2023/01/26 06:08:55;;;;;;;12.88;8.35;;;0.00;99.90;;;;;;5071655;28;20048;-46
2023/01/26 06:11:41;;;;;;;14.85;9.05;;;0.10;99.90;;;;;;5071710;28;20528;-54
2023/01/26 06:14:27;;;;;;;10.60;7.80;;;0.00;99.90;;;;;;5073817;28;20033;-52
2023/01/26 06:17:14;;;;;;;13.05;8.00;;;-0.10;99.90;;;;;;5073975;28;20159;-52
2023/01/26 06:20:00;;;;;;;14.05;8.55;;;0.10;99.90;;;;;;5072455;28;20082;-51
2023/01/26 06:22:46;;;;;;;15.23;8.32;;;0.10;99.90;;;;;;5074181;28;20025;-51
2023/01/26 06:25:32;;;;;;;11.70;8.30;;;0.20;99.90;;;;;;5073372;28;20400;-49
2023/01/26 06:28:19;;;;;;;14.30;8.65;;;0.20;99.90;;;;;;5073145;28;20396;-52
2023/01/26 06:31:06;;;;;;;13.57;8.48;;;0.30;99.90;;;;;;5071886;28;20180;-50
2023/01/26 06:33:52;;;;;;;16.15;9.32;;;0.20;99.90;;;;;;5070344;28;20029;-51
2023/01/26 06:36:39;;;;;;;15.13;9.63;;;0.20;99.90;;;;;;5070282;28;20028;-49
2023/01/26 06:39:25;;;;;;;15.93;9.73;;;0.10;99.90;;;;;;5071751;28;20028;-57
2023/01/26 06:42:11;;;;;;;15.45;9.68;;;0.10;99.90;;;;;;5073428;28;20029;-57
2023/01/26 06:44:57;;;;;;;16.92;9.38;;;0.20;99.90;;;;;;5072605;28;20033;-58
2023/01/26 06:47:48;;;;;;;16.67;9.43;;;0.20;99.90;;;;;;5071236;28;20046;-53
2023/01/26 06:50:34;;;;;;;16.10;10.07;;;0.20;99.90;;;;;;5071320;28;20028;-49
2023/01/26 06:53:38;;;;;;;14.02;8.73;;;0.20;99.90;;;;;;5051013;28;20048;-51
2023/01/26 06:56:27;;;;;;;15.07;8.90;;;0.20;99.90;;;;;;5056834;28;20489;-53
2023/01/26 06:59:13;;;;;;;12.75;8.13;;;0.30;99.90;;;;;;5069861;28;20447;-53
2023/01/26 07:01:59;;;;;;;17.15;9.75;;;0.30;99.90;;;;;;5068391;28;20040;-54
2023/01/26 07:04:46;;;;;;;14.32;8.80;;;0.30;99.90;;;;;;5070579;28;20067;-50
2023/01/26 07:07:32;;;;;;;11.88;8.63;;;0.20;99.90;;;;;;5069883;28;20036;-49
2023/01/26 07:10:18;;;;;;;23.95;10.40;;;0.20;99.90;;;;;;5070425;28;20039;-48
2023/01/26 07:13:05;;;;;;;17.70;8.30;;;0.30;99.90;;;;;;5070886;28;20055;-48
2023/01/26 07:15:51;;;;;;;16.35;8.13;;;0.20;99.90;;;;;;5070039;28;20111;-54
2023/01/26 07:18:37;;;;;;;14.15;8.68;;;0.30;99.90;;;;;;5070252;28;20680;-49
2023/01/26 07:21:23;;;;;;;15.02;8.07;;;0.30;99.90;;;;;;5071242;28;20128;-51
2023/01/26 07:24:09;;;;;;;38.33;15.98;;;0.30;99.90;;;;;;5071831;28;20021;-52
2023/01/26 07:26:55;;;;;;;16.10;8.48;;;0.30;99.90;;;;;;5070536;28;20059;-53
2023/01/26 07:29:41;;;;;;;13.10;8.15;;;0.30;99.90;;;;;;5070551;28;20071;-49
2023/01/26 07:32:27;;;;;;;12.23;7.85;;;0.20;99.90;;;;;;5070170;28;20044;-51
2023/01/26 07:35:13;;;;;;;14.50;8.55;;;0.20;99.90;;;;;;5070635;28;20082;-50
2023/01/26 07:38:02;;;;;;;13.50;7.57;;;0.20;99.90;;;;;;5069955;28;20021;-51
2023/01/26 07:40:48;;;;;;;10.75;7.45;;;0.30;99.90;;;;;;5070936;28;20033;-53
2023/01/26 07:43:35;;;;;;;13.40;8.65;;;0.30;99.90;;;;;;5071169;28;20382;-53
2023/01/26 07:46:22;;;;;;;12.70;8.18;;;0.40;99.90;;;;;;5070286;28;20493;-49
2023/01/26 07:49:11;;;;;;;14.07;8.05;;;0.30;99.90;;;;;;5068805;28;20102;-52
2023/01/26 07:51:57;;;;;;;12.07;7.50;;;0.30;99.90;;;;;;5073031;28;20029;-53
2023/01/26 07:54:43;;;;;;;15.20;9.55;;;0.40;99.90;;;;;;5073696;28;20115;-52
2023/01/26 07:57:29;;;;;;;12.18;8.27;;;0.40;99.90;;;;;;5073964;28;20380;-51
2023/01/26 08:00:16;;;;;;;13.90;8.95;;;0.50;99.90;;;;;;5059499;28;20455;-50
2023/01/26 08:03:03;;;;;;;12.95;8.57;;;0.50;99.90;;;;;;5074193;28;20021;-52
2023/01/26 08:05:51;;;;;;;11.65;7.97;;;0.20;99.90;;;;;;5073203;28;20032;-49
2023/01/26 08:08:40;;;;;;;13.32;8.05;;;0.10;99.90;;;;;;5074228;28;20029;-53
2023/01/26 08:11:26;;;;;;;13.93;8.57;;;0.10;99.90;;;;;;5074210;28;20162;-51
2023/01/26 08:14:12;;;;;;;14.27;8.63;;;0.20;99.90;;;;;;5073826;28;20078;-50
2023/01/26 08:16:58;;;;;;;13.93;8.90;;;0.10;99.90;;;;;;5073407;28;20040;-53
2023/01/26 08:19:45;;;;;;;15.02;9.50;;;-0.10;99.90;;;;;;5073163;28;20093;-49
2023/01/26 08:22:31;;;;;;;16.77;9.07;;;-0.10;99.90;;;;;;5072814;28;20025;-52
2023/01/26 08:25:17;;;;;;;15.13;9.85;;;0.00;99.90;;;;;;5074428;28;20027;-52
2023/01/26 08:28:03;;;;;;;15.45;8.95;;;-0.10;99.90;;;;;;5073729;28;20033;-51
2023/01/26 08:30:49;;;;;;;15.88;9.80;;;0.00;99.90;;;;;;5072558;28;20116;-48
2023/01/26 08:33:35;;;;;;;14.95;9.68;;;0.10;99.90;;;;;;5058463;28;20035;-54
2023/01/26 08:36:22;;;;;;;17.15;9.75;;;-0.10;99.90;;;;;;5074127;28;20029;-50
2023/01/26 08:39:08;;;;;;;22.35;10.88;;;0.10;99.90;;;;;;5073585;28;20063;-48
2023/01/26 08:41:54;;;;;;;17.40;10.13;;;0.10;99.90;;;;;;5074901;28;20028;-53
2023/01/26 08:44:40;;;;;;;16.02;9.85;;;0.10;99.90;;;;;;5073418;28;20033;-50
2023/01/26 08:47:26;;;;;;;15.30;9.30;;;0.20;99.90;;;;;;5072768;28;20071;-50
2023/01/26 08:50:12;;;;;;;18.13;9.75;;;0.30;99.90;;;;;;5073172;28;20106;-53
2023/01/26 08:52:57;;;;;;;19.27;11.32;;;0.40;99.90;;;;;;5073917;28;20026;-52
2023/01/26 08:55:43;;;;;;;15.65;9.82;;;0.50;99.90;;;;;;5072768;28;20515;-53
2023/01/26 08:58:30;;;;;;;16.77;10.55;;;0.50;99.90;;;;;;5071726;28;20296;-49
2023/01/26 09:01:16;;;;;;;19.00;10.65;;;0.50;99.90;;;;;;5072585;28;20393;-50
2023/01/26 09:04:02;;;;;;;20.05;12.70;;;0.60;99.90;;;;;;5072823;28;20408;-52
2023/01/26 09:06:48;;;;;;;19.67;11.57;;;0.70;99.90;;;;;;5073140;28;20025;-54
2023/01/26 09:09:34;;;;;;;18.02;11.45;;;0.60;99.90;;;;;;5071949;28;20485;-53
2023/01/26 09:12:20;;;;;;;18.73;11.40;;;0.60;99.90;;;;;;5073107;28;20028;-53
2023/01/26 09:15:07;;;;;;;21.73;11.95;;;0.60;99.90;;;;;;5071999;28;20025;-53
2023/01/26 09:17:53;;;;;;;21.15;12.38;;;0.50;99.90;;;;;;5071929;28;20500;-52
2023/01/26 09:20:39;;;;;;;20.58;13.43;;;0.50;99.90;;;;;;5058892;28;20029;-49
2023/01/26 09:23:25;;;;;;;21.85;12.90;;;0.40;99.90;;;;;;5074195;28;20032;-49
2023/01/26 09:26:11;;;;;;;21.45;13.05;;;0.40;99.90;;;;;;5071727;28;20029;-55
2023/01/26 09:28:57;;;;;;;26.00;13.13;;;0.30;99.90;;;;;;5071352;28;20481;-53
2023/01/26 09:31:43;;;;;;;23.20;14.10;;;0.20;99.90;;;;;;5070004;28;20527;-54
2023/01/26 09:34:29;;;;;;;24.02;13.40;;;0.20;99.90;;;;;;5057192;28;20059;-50
2023/01/26 09:37:15;;;;;;;23.50;13.00;;;0.20;99.90;;;;;;5072073;28;20035;-52
2023/01/26 09:40:01;;;;;;;19.60;11.15;;;0.20;99.90;;;;;;5072239;28;20033;-49
2023/01/26 09:43:40;;;;;;;23.83;14.43;;;0.00;99.90;;;;;;5072653;28;20024;-52
2023/01/26 09:46:53;;;;;;;17.80;11.15;;;-0.10;99.90;;;;;;5050741;28;20028;-55
2023/01/26 09:50:02;;;;;;;21.42;12.25;;;0.00;99.90;;;;;;5073072;28;20013;-55
2023/01/26 09:53:01;;;;;;;22.67;12.00;;;0.00;99.90;;;;;;5072284;28;20021;-54
2023/01/26 09:55:48;;;;;;;20.20;12.15;;;-0.10;99.90;;;;;;5071414;28;20035;-50
2023/01/26 09:58:39;;;;;;;21.05;13.60;;;-0.10;99.90;;;;;;5072009;28;20026;-54
2023/01/26 10:01:51;;;;;;;24.63;13.40;;;-0.10;99.90;;;;;;5071349;28;20020;-53
2023/01/26 10:04:41;;;;;;;23.85;13.77;;;-0.10;99.90;;;;;;5045379;28;20033;-51
2023/01/26 10:07:27;;;;;;;24.88;13.85;;;-0.10;99.90;;;;;;5071796;28;20543;-53
2023/01/26 10:10:27;;;;;;;23.75;14.02;;;-0.10;99.90;;;;;;5071671;28;20020;-54
2023/01/26 10:13:16;;;;;;;28.50;15.10;;;-0.20;99.90;;;;;;5071299;28;20044;-51
2023/01/26 10:16:08;;;;;;;26.38;15.63;;;-0.20;99.90;;;;;;5071552;28;20024;-54
2023/01/26 10:19:10;;;;;;;29.27;15.38;;;-0.20;99.90;;;;;;5071706;28;20449;-51
2023/01/26 10:22:02;;;;;;;27.63;15.63;;;-0.10;99.90;;;;;;5072230;28;20036;-53
2023/01/26 10:24:51;;;;;;;26.45;15.27;;;-0.10;99.90;;;;;;5072318;28;20108;-54
2023/01/26 10:27:37;;;;;;;30.02;16.55;;;-0.10;99.90;;;;;;5070720;28;20017;-52
2023/01/26 10:30:23;;;;;;;32.65;18.88;;;-0.10;99.90;;;;;;5072146;28;20035;-53
2023/01/26 10:33:13;;;;;;;41.50;20.20;;;-0.20;99.90;;;;;;5071979;28;20058;-52
2023/01/26 10:36:01;;;;;;;37.45;19.92;;;-0.50;99.90;;;;;;5071084;28;20405;-52
2023/01/26 10:38:48;;;;;;;34.67;20.35;;;-0.40;99.90;;;;;;5071602;28;20028;-52
2023/01/26 10:41:35;;;;;;;40.20;21.48;;;-0.30;99.90;;;;;;5071937;28;20052;-55
2023/01/26 10:44:37;;;;;;;40.75;21.60;;;-0.20;99.90;;;;;;5071542;28;20052;-56
2023/01/26 10:47:24;;;;;;;49.53;24.58;;;-0.20;99.90;;;;;;5056197;28;20029;-51
2023/01/26 10:50:24;;;;;;;45.78;22.30;;;-0.40;99.90;;;;;;5071917;28;20028;-50
2023/01/26 10:53:17;;;;;;;43.53;22.45;;;-0.40;99.90;;;;;;5071647;28;20056;-53
2023/01/26 10:56:06;;;;;;;46.33;24.70;;;-0.50;99.90;;;;;;5070941;28;20577;-51
2023/01/26 10:58:59;;;;;;;48.38;23.33;;;-0.50;99.90;;;;;;5070104;28;20111;-50
2023/01/26 11:01:54;;;;;;;49.63;23.73;;;-0.50;99.90;;;;;;5070892;28;20028;-52
2023/01/26 11:05:00;;;;;;;40.03;21.35;;;-0.40;99.90;;;;;;5070695;28;20068;-56
2023/01/26 11:07:50;;;;;;;50.92;24.02;;;-0.50;99.90;;;;;;5070407;28;20388;-54
2023/01/26 11:10:38;;;;;;;42.92;22.42;;;-0.60;99.90;;;;;;5071014;28;20032;-51
2023/01/26 11:13:24;;;;;;;40.95;21.02;;;-0.60;99.90;;;;;;5071189;28;20025;-51
2023/01/26 11:16:22;;;;;;;39.83;21.40;;;-0.90;99.90;;;;;;5070305;28;20067;-55
2023/01/26 11:19:16;;;;;;;41.72;22.65;;;-1.00;99.90;;;;;;5071288;28;20036;-52
2023/01/26 11:22:06;;;;;;;41.28;20.50;;;-1.10;99.90;;;;;;5071088;28;20040;-52
2023/01/26 11:25:02;;;;;;;39.90;20.50;;;-1.10;99.90;;;;;;5069524;28;20077;-51
2023/01/26 11:28:06;;;;;;;41.95;19.98;;;-1.20;99.90;;;;;;5072171;28;20027;-55
2023/01/26 11:31:03;;;;;;;36.33;18.45;;;-1.10;99.90;;;;;;5057645;28;20035;-53
2023/01/26 11:34:17;;;;;;;32.92;18.67;;;-1.10;99.90;;;;;;5071182;28;20050;-56
2023/01/26 11:37:35;;;;;;;33.72;18.70;;;-0.90;99.90;;;;;;5070061;28;20032;-54
2023/01/26 11:40:30;;;;;;;35.92;18.23;;;-0.80;99.90;;;;;;5069575;28;20091;-56
2023/01/26 11:43:31;;;;;;;34.28;19.48;;;-0.70;99.90;;;;;;5073338;28;20020;-55
2023/01/26 11:46:42;;;;;;;35.17;17.83;;;-0.70;99.90;;;;;;5071840;28;20382;-52
2023/01/26 11:49:32;;;;;;;31.20;17.23;;;-0.60;99.90;;;;;;5056182;28;20392;-56
2023/01/26 11:52:36;;;;;;;27.83;15.75;;;-0.60;99.90;;;;;;5058317;28;20079;-50
2023/01/26 11:55:52;;;;;;;30.23;16.98;;;-0.60;99.90;;;;;;5070226;28;20033;-53
2023/01/26 11:58:44;;;;;;;23.35;14.38;;;-0.40;99.90;;;;;;5056371;28;20029;-50
2023/01/26 12:01:32;;;;;;;28.40;16.35;;;-0.50;99.90;;;;;;5071245;28;20033;-55
2023/01/26 12:04:22;;;;;;;28.63;16.48;;;-0.60;99.90;;;;;;5070767;28;20020;-52
2023/01/26 12:07:18;;;;;;;31.20;17.23;;;-0.70;99.90;;;;;;5068854;28;20611;-53
2023/01/26 12:10:06;;;;;;;28.08;15.80;;;-0.60;99.90;;;;;;5070031;28;20024;-50
2023/01/26 12:13:04;;;;;;;30.17;17.10;;;-0.60;99.90;;;;;;5070196;28;20174;-52
2023/01/26 12:15:56;;;;;;;26.77;16.00;;;-0.60;99.90;;;;;;5069488;28;20469;-52
2023/01/26 12:19:18;;;;;;;26.42;15.25;;;-0.50;99.90;;;;;;5069676;28;20039;-50
2023/01/26 12:22:17;;;;;;;29.17;15.85;;;-0.50;99.90;;;;;;4988698;28;20046;-51
2023/01/26 12:25:32;;;;;;;29.33;16.50;;;-0.60;99.90;;;;;;5071818;28;20032;-51
2023/01/26 12:28:47;;;;;;;26.63;15.75;;;-0.80;99.90;;;;;;5058305;28;20504;-50
2023/01/26 12:31:57;;;;;;;27.25;15.82;;;-0.70;99.90;;;;;;5074772;28;20036;-50
2023/01/26 12:34:43;;;;;;;26.42;15.90;;;-0.50;99.90;;;;;;5068740;28;20052;-49
2023/01/26 12:37:46;;;;;;;26.27;15.93;;;-0.60;99.90;;;;;;5053561;28;20108;-52
2023/01/26 12:40:43;;;;;;;25.83;15.82;;;-0.50;99.90;;;;;;5072862;28;20021;-53
2023/01/26 12:44:10;;;;;;;26.23;14.70;;;-0.20;99.90;;;;;;5073620;28;20020;-52
2023/01/26 12:47:04;;;;;;;28.27;15.02;;;-0.10;99.90;;;;;;5072631;28;20104;-52
2023/01/26 12:49:59;;;;;;;25.42;13.98;;;0.00;99.90;;;;;;5074741;28;20102;-52
2023/01/26 12:52:50;;;;;;;27.70;15.95;;;-0.10;99.90;;;;;;5077533;28;20489;-50
2023/01/26 12:55:43;;;;;;;30.65;16.65;;;-0.20;99.90;;;;;;5076471;28;20455;-51
2023/01/26 12:58:34;;;;;;;23.33;14.40;;;-0.10;99.90;;;;;;5061309;28;20055;-52
2023/01/26 13:01:23;;;;;;;24.02;13.55;;;0.00;99.90;;;;;;5062166;28;20051;-51
2023/01/26 13:04:12;;;;;;;25.90;15.07;;;-0.10;99.90;;;;;;5074159;28;20063;-54
2023/01/26 13:07:03;;;;;;;31.88;15.75;;;-0.10;99.90;;;;;;5073023;28;20449;-49
2023/01/26 13:10:26;;;;;;;27.25;15.02;;;-0.10;99.90;;;;;;5072418;28;20106;-51
2023/01/26 13:13:17;;;;;;;26.92;15.68;;;-0.10;99.90;;;;;;5070274;28;20083;-54
2023/01/26 13:16:15;;;;;;;28.55;15.60;;;-0.20;99.90;;;;;;5075053;28;20025;-53
2023/01/26 13:19:02;;;;;;;28.35;15.05;;;0.00;99.90;;;;;;5060336;28;20419;-51
2023/01/26 13:21:48;;;;;;;27.13;16.02;;;0.10;99.90;;;;;;5072604;28;20550;-49
2023/01/26 13:24:34;;;;;;;25.95;15.27;;;-0.10;99.90;;;;;;5073707;28;20391;-50
2023/01/26 13:27:54;;;;;;;26.05;14.85;;;-0.30;99.90;;;;;;5073830;28;20044;-50
2023/01/26 13:30:45;;;;;;;25.80;14.98;;;-0.20;99.90;;;;;;5078507;28;20060;-53
2023/01/26 13:33:31;;;;;;;22.80;12.95;;;0.00;99.90;;;;;;5074762;28;20078;-52
2023/01/26 13:36:20;;;;;;;23.38;13.63;;;0.10;99.90;;;;;;5070899;28;20024;-49
2023/01/26 13:39:30;;;;;;;24.80;14.00;;;0.10;99.90;;;;;;5054873;28;20036;-50
2023/01/26 13:42:22;;;;;;;21.25;13.18;;;0.10;99.90;;;;;;5054887;28;20497;-52
2023/01/26 13:45:38;;;;;;;23.08;14.30;;;0.10;99.90;;;;;;5056855;28;20025;-52
2023/01/26 13:48:45;;;;;;;26.15;15.60;;;0.00;99.90;;;;;;5055340;28;20088;-50
2023/01/26 13:51:34;;;;;;;25.58;14.13;;;0.10;99.90;;;;;;5055969;28;20033;-52
2023/01/26 13:54:22;;;;;;;26.65;14.40;;;0.20;99.90;;;;;;5040608;28;20100;-50
2023/01/26 13:57:10;;;;;;;32.67;15.88;;;0.40;99.90;;;;;;5053951;28;20043;-54
2023/01/26 13:59:59;;;;;;;24.20;14.07;;;0.40;99.90;;;;;;5055533;28;20029;-50
2023/01/26 14:02:50;;;;;;;24.45;12.40;;;0.20;99.90;;;;;;5056246;28;20025;-50
2023/01/26 14:05:36;;;;;;;24.63;13.98;;;0.30;99.90;;;;;;5056453;28;20025;-54
2023/01/26 14:08:23;;;;;;;25.33;14.25;;;0.30;99.90;;;;;;5057619;28;20063;-50
2023/01/26 14:11:19;;;;;;;25.83;13.88;;;0.20;99.90;;;;;;5057252;28;20021;-50
2023/01/26 14:14:12;;;;;;;24.90;13.68;;;0.20;99.90;;;;;;5057692;28;20032;-54
2023/01/26 14:16:59;;;;;;;25.90;13.57;;;0.20;99.90;;;;;;5057429;28;20025;-52
2023/01/26 14:19:45;;;;;;;27.05;14.80;;;0.00;99.90;;;;;;5054484;28;20060;-50
2023/01/26 14:22:31;;;;;;;25.55;13.60;;;-0.10;99.90;;;;;;5054673;28;20443;-51
2023/01/26 14:25:19;;;;;;;24.52;13.57;;;-0.10;99.90;;;;;;5042422;28;20025;-54
2023/01/26 14:28:11;;;;;;;27.52;13.82;;;-0.10;99.90;;;;;;5055164;28;20025;-56
2023/01/26 14:31:02;;;;;;;25.52;14.70;;;-0.10;99.90;;;;;;5052976;28;20029;-50
2023/01/26 14:33:52;;;;;;;24.02;12.75;;;0.00;99.90;;;;;;5054475;28;20025;-52
2023/01/26 14:36:38;;;;;;;25.88;12.70;;;0.10;99.90;;;;;;5075240;28;20025;-54
2023/01/26 14:39:24;;;;;;;25.10;13.73;;;0.00;99.90;;;;;;5076311;28;20025;-50
2023/01/26 14:42:17;;;;;;;27.67;14.07;;;0.00;99.90;;;;;;5053822;28;20060;-52
2023/01/26 14:45:04;;;;;;;29.95;14.45;;;0.20;99.90;;;;;;5052872;28;20312;-54
2023/01/26 14:47:52;;;;;;;27.83;14.38;;;0.10;99.90;;;;;;5054674;28;20029;-55
2023/01/26 14:50:39;;;;;;;23.75;13.10;;;0.20;99.90;;;;;;5037398;28;20595;-51
2023/01/26 14:53:26;;;;;;;24.88;11.90;;;0.30;99.90;;;;;;5052031;28;20091;-54
2023/01/26 14:56:22;;;;;;;23.77;11.38;;;0.40;99.90;;;;;;5051022;28;20410;-51
2023/01/26 14:59:15;;;;;;;26.65;11.98;;;0.10;99.90;;;;;;5051979;28;20494;-55
2023/01/26 15:02:08;;;;;;;21.90;11.90;;;-0.10;99.90;;;;;;5052265;28;20028;-54
2023/01/26 15:05:01;;;;;;;24.83;11.88;;;-0.10;99.90;;;;;;5052734;28;20025;-53
2023/01/26 15:07:50;;;;;;;26.30;12.52;;;-0.20;99.90;;;;;;5051522;28;20025;-53
2023/01/26 15:10:40;;;;;;;24.95;12.82;;;-0.30;99.90;;;;;;5051543;28;20039;-54
2023/01/26 15:13:30;;;;;;;21.13;11.15;;;-0.10;99.90;;;;;;5052905;28;20041;-52
2023/01/26 15:16:22;;;;;;;24.23;11.27;;;-0.20;99.90;;;;;;5053367;28;20033;-54
2023/01/26 15:19:22;;;;;;;28.23;13.15;;;0.00;99.90;;;;;;5059047;28;20071;-50
2023/01/26 15:22:21;;;;;;;27.38;14.30;;;-0.20;99.90;;;;;;5041751;28;20470;-51
2023/01/26 15:25:21;;;;;;;24.50;12.25;;;-0.20;99.90;;;;;;5055618;28;20017;-54
2023/01/26 15:28:17;;;;;;;23.33;12.60;;;-0.10;99.90;;;;;;5053125;28;20052;-52